sensor_id;sensor_type;location;lat;lon;timestamp;temperature;humidity
10046;DHT22;5063;50.878;4.742;2024-02-26T00:01:42;7.00;99.90
10046;DHT22;5063;50.878;4.742;2024-02-26T00:04:09;7.00;99.90
10046;DHT22;5063;50.878;4.742;2024-02-26T00:06:35;6.90;99.90
10046;DHT22;5063;50.878;4.742;2024-02-26T00:09:01;6.90;99.90
10046;DHT22;5063;50.878;4.742;2024-02-26T00:11:28;6.90;99.90
10046;DHT22;5063;50.878;4.742;2024-02-26T00:13:53;6.90;99.90
10046;DHT22;5063;50.878;4.742;2024-02-26T00:16:19;6.90;99.90
10046;DHT22;5063;50.878;4.742;2024-02-26T00:18:45;7.10;99.90
10046;DHT22;5063;50.878;4.742;2024-02-26T00:21:11;6.90;99.90
10046;DHT22;5063;50.878;4.742;2024-02-26T00:23:37;6.90;99.90
10046;DHT22;5063;50.878;4.742;2024-02-26T00:26:02;6.90;99.90
10046;DHT22;5063;50.878;4.742;2024-02-26T00:28:29;6.80;99.90
10046;DHT22;5063;50.878;4.742;2024-02-26T00:30:55;6.90;99.90
10046;DHT22;5063;50.878;4.742;2024-02-26T00:33:22;6.80;99.90
10046;DHT22;5063;50.878;4.742;2024-02-26T00:35:48;6.80;99.90
10046;DHT22;5063;50.878;4.742;2024-02-26T00:38:14;6.90;99.90
10046;DHT22;5063;50.878;4.742;2024-02-26T00:40:40;6.80;99.90
10046;DHT22;5063;50.878;4.742;2024-02-26T00:43:08;6.80;99.90
10046;DHT22;5063;50.878;4.742;2024-02-26T00:45:34;6.80;99.90
10046;DHT22;5063;50.878;4.742;2024-02-26T00:48:00;6.70;99.90
10046;DHT22;5063;50.878;4.742;2024-02-26T00:50:30;6.70;99.90
10046;DHT22;5063;50.878;4.742;2024-02-26T00:52:56;6.70;99.90
10046;DHT22;5063;50.878;4.742;2024-02-26T00:55:21;6.60;99.90
10046;DHT22;5063;50.878;4.742;2024-02-26T00:57:47;6.60;99.90
10046;DHT22;5063;50.878;4.742;2024-02-26T01:00:13;6.70;99.90
10046;DHT22;5063;50.878;4.742;2024-02-26T01:02:39;6.70;99.90
10046;DHT22;5063;50.878;4.742;2024-02-26T01:05:07;6.70;99.90
10046;DHT22;5063;50.878;4.742;2024-02-26T01:07:35;6.70;99.90
10046;DHT22;5063;50.878;4.742;2024-02-26T01:10:04;6.60;99.90
10046;DHT22;5063;50.878;4.742;2024-02-26T01:12:31;6.60;99.90
10046;DHT22;5063;50.878;4.742;2024-02-26T01:14:57;6.60;99.90
10046;DHT22;5063;50.878;4.742;2024-02-26T01:17:23;6.60;99.90
10046;DHT22;5063;50.878;4.742;2024-02-26T01:19:49;6.60;99.90
10046;DHT22;5063;50.878;4.742;2024-02-26T01:22:15;6.50;99.90
10046;DHT22;5063;50.878;4.742;2024-02-26T01:24:41;6.90;99.90
10046;DHT22;5063;50.878;4.742;2024-02-26T01:27:06;6.60;99.90
10046;DHT22;5063;50.878;4.742;2024-02-26T01:29:34;6.60;99.90
10046;DHT22;5063;50.878;4.742;2024-02-26T01:32:00;6.50;99.90
10046;DHT22;5063;50.878;4.742;2024-02-26T01:34:26;6.60;99.90
10046;DHT22;5063;50.878;4.742;2024-02-26T01:36:51;6.50;99.90
10046;DHT22;5063;50.878;4.742;2024-02-26T01:39:17;6.60;99.90
10046;DHT22;5063;50.878;4.742;2024-02-26T01:41:43;6.60;99.90
10046;DHT22;5063;50.878;4.742;2024-02-26T01:44:12;6.50;99.90
10046;DHT22;5063;50.878;4.742;2024-02-26T01:46:39;6.50;99.90
10046;DHT22;5063;50.878;4.742;2024-02-26T01:49:05;6.50;99.90
10046;DHT22;5063;50.878;4.742;2024-02-26T01:51:32;6.50;99.90
10046;DHT22;5063;50.878;4.742;2024-02-26T01:53:59;6.60;99.90
10046;DHT22;5063;50.878;4.742;2024-02-26T01:56:28;6.50;99.90
10046;DHT22;5063;50.878;4.742;2024-02-26T01:58:57;6.50;99.90
10046;DHT22;5063;50.878;4.742;2024-02-26T02:01:26;6.50;99.90
10046;DHT22;5063;50.878;4.742;2024-02-26T02:03:53;6.50;99.90
10046;DHT22;5063;50.878;4.742;2024-02-26T02:06:19;6.40;99.90
10046;DHT22;5063;50.878;4.742;2024-02-26T02:08:45;6.50;99.90
10046;DHT22;5063;50.878;4.742;2024-02-26T02:11:12;6.50;99.90
10046;DHT22;5063;50.878;4.742;2024-02-26T02:13:38;6.50;99.90
10046;DHT22;5063;50.878;4.742;2024-02-26T02:16:04;6.50;99.90
10046;DHT22;5063;50.878;4.742;2024-02-26T02:18:30;6.50;99.90
10046;DHT22;5063;50.878;4.742;2024-02-26T02:20:55;6.40;99.90
10046;DHT22;5063;50.878;4.742;2024-02-26T02:23:24;6.50;99.90
10046;DHT22;5063;50.878;4.742;2024-02-26T02:25:51;6.50;99.90
10046;DHT22;5063;50.878;4.742;2024-02-26T02:28:17;6.50;99.90
10046;DHT22;5063;50.878;4.742;2024-02-26T02:30:43;6.50;99.90
10046;DHT22;5063;50.878;4.742;2024-02-26T02:33:09;6.50;99.90
10046;DHT22;5063;50.878;4.742;2024-02-26T02:35:34;6.50;99.90
10046;DHT22;5063;50.878;4.742;2024-02-26T02:38:00;6.60;99.90
10046;DHT22;5063;50.878;4.742;2024-02-26T02:40:26;6.40;99.90
10046;DHT22;5063;50.878;4.742;2024-02-26T02:42:52;6.50;99.90
10046;DHT22;5063;50.878;4.742;2024-02-26T02:45:17;6.60;99.90
10046;DHT22;5063;50.878;4.742;2024-02-26T02:47:43;6.50;99.90
10046;DHT22;5063;50.878;4.742;2024-02-26T02:50:09;6.50;99.90
10046;DHT22;5063;50.878;4.742;2024-02-26T02:52:35;6.50;99.90
10046;DHT22;5063;50.878;4.742;2024-02-26T02:55:01;6.50;99.90
10046;DHT22;5063;50.878;4.742;2024-02-26T02:57:27;6.50;99.90
10046;DHT22;5063;50.878;4.742;2024-02-26T02:59:52;6.50;99.90
10046;DHT22;5063;50.878;4.742;2024-02-26T03:02:18;6.50;99.90
10046;DHT22;5063;50.878;4.742;2024-02-26T03:04:44;6.50;99.90
10046;DHT22;5063;50.878;4.742;2024-02-26T03:07:09;6.50;99.90
10046;DHT22;5063;50.878;4.742;2024-02-26T03:09:35;6.40;99.90
10046;DHT22;5063;50.878;4.742;2024-02-26T03:12:01;6.40;99.90
10046;DHT22;5063;50.878;4.742;2024-02-26T03:14:27;6.40;99.90
10046;DHT22;5063;50.878;4.742;2024-02-26T03:16:56;6.60;99.90
10046;DHT22;5063;50.878;4.742;2024-02-26T03:19:21;6.40;99.90
10046;DHT22;5063;50.878;4.742;2024-02-26T03:21:47;6.30;99.90
10046;DHT22;5063;50.878;4.742;2024-02-26T03:24:13;6.50;99.90
10046;DHT22;5063;50.878;4.742;2024-02-26T03:26:40;6.40;99.90
10046;DHT22;5063;50.878;4.742;2024-02-26T03:29:06;6.50;99.90
10046;DHT22;5063;50.878;4.742;2024-02-26T03:31:31;6.50;99.90
10046;DHT22;5063;50.878;4.742;2024-02-26T03:33:57;6.40;99.90
10046;DHT22;5063;50.878;4.742;2024-02-26T03:36:23;6.30;99.90
10046;DHT22;5063;50.878;4.742;2024-02-26T03:38:48;6.50;99.90
10046;DHT22;5063;50.878;4.742;2024-02-26T03:41:14;6.40;99.90
10046;DHT22;5063;50.878;4.742;2024-02-26T03:43:40;6.40;99.90
10046;DHT22;5063;50.878;4.742;2024-02-26T03:46:09;6.40;99.90
10046;DHT22;5063;50.878;4.742;2024-02-26T03:48:37;6.70;99.90
10046;DHT22;5063;50.878;4.742;2024-02-26T03:51:03;6.40;99.90
10046;DHT22;5063;50.878;4.742;2024-02-26T03:53:29;6.60;99.90
10046;DHT22;5063;50.878;4.742;2024-02-26T03:55:54;6.30;99.90
10046;DHT22;5063;50.878;4.742;2024-02-26T03:58:21;6.50;99.90
10046;DHT22;5063;50.878;4.742;2024-02-26T04:00:47;6.50;99.90
10046;DHT22;5063;50.878;4.742;2024-02-26T04:03:15;6.50;99.90
10046;DHT22;5063;50.878;4.742;2024-02-26T04:05:41;6.50;99.90
10046;DHT22;5063;50.878;4.742;2024-02-26T04:08:07;6.30;99.90
10046;DHT22;5063;50.878;4.742;2024-02-26T04:10:36;6.50;99.90
10046;DHT22;5063;50.878;4.742;2024-02-26T04:13:04;6.40;99.90
10046;DHT22;5063;50.878;4.742;2024-02-26T04:15:31;6.40;99.90
10046;DHT22;5063;50.878;4.742;2024-02-26T04:17:57;6.30;99.90
10046;DHT22;5063;50.878;4.742;2024-02-26T04:20:23;6.50;99.90
10046;DHT22;5063;50.878;4.742;2024-02-26T04:22:48;6.40;99.90
10046;DHT22;5063;50.878;4.742;2024-02-26T04:25:14;6.40;99.90
10046;DHT22;5063;50.878;4.742;2024-02-26T04:27:40;6.40;99.90
10046;DHT22;5063;50.878;4.742;2024-02-26T04:30:07;6.40;99.90
10046;DHT22;5063;50.878;4.742;2024-02-26T04:32:33;6.30;99.90
10046;DHT22;5063;50.878;4.742;2024-02-26T04:35:00;6.30;99.90
10046;DHT22;5063;50.878;4.742;2024-02-26T04:37:26;6.40;99.90
10046;DHT22;5063;50.878;4.742;2024-02-26T04:40:01;6.30;99.90
10046;DHT22;5063;50.878;4.742;2024-02-26T04:42:27;6.40;99.90
10046;DHT22;5063;50.878;4.742;2024-02-26T04:44:53;6.40;99.90
10046;DHT22;5063;50.878;4.742;2024-02-26T04:47:19;6.40;99.90
10046;DHT22;5063;50.878;4.742;2024-02-26T04:49:45;6.60;99.90
10046;DHT22;5063;50.878;4.742;2024-02-26T04:52:11;6.40;99.90
10046;DHT22;5063;50.878;4.742;2024-02-26T04:54:37;6.00;99.90
10046;DHT22;5063;50.878;4.742;2024-02-26T04:57:02;6.30;99.90
10046;DHT22;5063;50.878;4.742;2024-02-26T04:59:28;6.40;99.90
10046;DHT22;5063;50.878;4.742;2024-02-26T05:01:54;6.70;99.90
10046;DHT22;5063;50.878;4.742;2024-02-26T05:04:19;6.70;99.90
10046;DHT22;5063;50.878;4.742;2024-02-26T05:06:45;6.30;99.90
10046;DHT22;5063;50.878;4.742;2024-02-26T05:09:11;6.40;99.90
10046;DHT22;5063;50.878;4.742;2024-02-26T05:11:37;6.40;99.90
10046;DHT22;5063;50.878;4.742;2024-02-26T05:14:03;6.20;99.90
10046;DHT22;5063;50.878;4.742;2024-02-26T05:16:28;6.50;99.90
10046;DHT22;5063;50.878;4.742;2024-02-26T05:18:56;6.40;99.90
10046;DHT22;5063;50.878;4.742;2024-02-26T05:21:22;6.40;99.90
10046;DHT22;5063;50.878;4.742;2024-02-26T05:23:47;6.40;99.90
10046;DHT22;5063;50.878;4.742;2024-02-26T05:26:22;6.40;99.90
10046;DHT22;5063;50.878;4.742;2024-02-26T05:28:49;6.30;99.90
10046;DHT22;5063;50.878;4.742;2024-02-26T05:31:15;6.60;99.90
10046;DHT22;5063;50.878;4.742;2024-02-26T05:33:41;6.40;99.90
10046;DHT22;5063;50.878;4.742;2024-02-26T05:36:07;6.40;99.90
10046;DHT22;5063;50.878;4.742;2024-02-26T05:38:33;6.40;99.90
10046;DHT22;5063;50.878;4.742;2024-02-26T05:40:59;6.50;99.90
10046;DHT22;5063;50.878;4.742;2024-02-26T05:43:28;6.40;99.90
10046;DHT22;5063;50.878;4.742;2024-02-26T05:45:54;6.40;99.90
10046;DHT22;5063;50.878;4.742;2024-02-26T05:48:21;6.40;99.90
10046;DHT22;5063;50.878;4.742;2024-02-26T05:50:47;6.50;99.90
10046;DHT22;5063;50.878;4.742;2024-02-26T05:53:13;6.40;99.90
10046;DHT22;5063;50.878;4.742;2024-02-26T05:55:38;6.40;99.90
10046;DHT22;5063;50.878;4.742;2024-02-26T05:58:04;6.30;99.90
10046;DHT22;5063;50.878;4.742;2024-02-26T06:00:30;6.40;99.90
10046;DHT22;5063;50.878;4.742;2024-02-26T06:02:56;6.50;99.90
10046;DHT22;5063;50.878;4.742;2024-02-26T06:05:21;6.50;99.90
10046;DHT22;5063;50.878;4.742;2024-02-26T06:07:47;6.30;99.90
10046;DHT22;5063;50.878;4.742;2024-02-26T06:10:13;6.60;99.90
10046;DHT22;5063;50.878;4.742;2024-02-26T06:12:41;6.20;99.90
10046;DHT22;5063;50.878;4.742;2024-02-26T06:15:08;6.40;99.90
10046;DHT22;5063;50.878;4.742;2024-02-26T06:17:34;6.50;99.90
10046;DHT22;5063;50.878;4.742;2024-02-26T06:20:00;6.30;99.90
10046;DHT22;5063;50.878;4.742;2024-02-26T06:22:26;6.40;99.90
10046;DHT22;5063;50.878;4.742;2024-02-26T06:24:52;6.20;99.90
10046;DHT22;5063;50.878;4.742;2024-02-26T06:27:18;6.30;99.90
10046;DHT22;5063;50.878;4.742;2024-02-26T06:29:43;6.40;99.90
10046;DHT22;5063;50.878;4.742;2024-02-26T06:32:09;6.30;99.90
10046;DHT22;5063;50.878;4.742;2024-02-26T06:34:35;6.30;99.90
10046;DHT22;5063;50.878;4.742;2024-02-26T06:37:00;6.30;99.90
10046;DHT22;5063;50.878;4.742;2024-02-26T06:39:26;6.30;99.90
10046;DHT22;5063;50.878;4.742;2024-02-26T06:41:52;6.20;99.90
10046;DHT22;5063;50.878;4.742;2024-02-26T06:44:26;6.20;99.90
10046;DHT22;5063;50.878;4.742;2024-02-26T06:46:52;6.20;99.90
10046;DHT22;5063;50.878;4.742;2024-02-26T06:49:18;6.20;99.90
10046;DHT22;5063;50.878;4.742;2024-02-26T06:51:43;6.20;99.90
10046;DHT22;5063;50.878;4.742;2024-02-26T06:54:09;6.40;99.90
10046;DHT22;5063;50.878;4.742;2024-02-26T06:56:35;6.20;99.90
10046;DHT22;5063;50.878;4.742;2024-02-26T06:59:01;6.30;99.90
10046;DHT22;5063;50.878;4.742;2024-02-26T07:01:26;6.20;99.90
10046;DHT22;5063;50.878;4.742;2024-02-26T07:03:52;6.10;99.90
10046;DHT22;5063;50.878;4.742;2024-02-26T07:06:18;5.90;99.90
10046;DHT22;5063;50.878;4.742;2024-02-26T07:08:44;6.20;99.90
10046;DHT22;5063;50.878;4.742;2024-02-26T07:11:10;6.40;99.90
10046;DHT22;5063;50.878;4.742;2024-02-26T07:13:36;6.20;99.90
10046;DHT22;5063;50.878;4.742;2024-02-26T07:16:03;6.10;99.90
10046;DHT22;5063;50.878;4.742;2024-02-26T07:18:28;6.10;99.90
10046;DHT22;5063;50.878;4.742;2024-02-26T07:20:54;6.20;99.90
10046;DHT22;5063;50.878;4.742;2024-02-26T07:23:21;6.30;99.90
10046;DHT22;5063;50.878;4.742;2024-02-26T07:25:47;6.40;99.90
10046;DHT22;5063;50.878;4.742;2024-02-26T07:28:14;6.20;99.90
10046;DHT22;5063;50.878;4.742;2024-02-26T07:30:40;6.20;99.90
10046;DHT22;5063;50.878;4.742;2024-02-26T07:33:06;6.10;99.90
10046;DHT22;5063;50.878;4.742;2024-02-26T07:35:33;6.20;99.90
10046;DHT22;5063;50.878;4.742;2024-02-26T07:37:59;6.20;99.90
10046;DHT22;5063;50.878;4.742;2024-02-26T07:40:24;6.20;99.90
10046;DHT22;5063;50.878;4.742;2024-02-26T07:42:51;6.20;99.90
10046;DHT22;5063;50.878;4.742;2024-02-26T07:45:17;6.20;99.90
10046;DHT22;5063;50.878;4.742;2024-02-26T07:47:46;6.20;99.90
10046;DHT22;5063;50.878;4.742;2024-02-26T07:50:12;6.20;99.90
10046;DHT22;5063;50.878;4.742;2024-02-26T07:52:38;6.20;99.90
10046;DHT22;5063;50.878;4.742;2024-02-26T07:55:04;6.20;99.90
10046;DHT22;5063;50.878;4.742;2024-02-26T07:57:32;6.20;99.90
10046;DHT22;5063;50.878;4.742;2024-02-26T07:59:57;6.20;99.90
10046;DHT22;5063;50.878;4.742;2024-02-26T08:02:23;6.20;99.90
10046;DHT22;5063;50.878;4.742;2024-02-26T08:04:49;6.20;99.90
10046;DHT22;5063;50.878;4.742;2024-02-26T08:07:14;6.20;99.90
10046;DHT22;5063;50.878;4.742;2024-02-26T08:09:40;6.10;99.90
10046;DHT22;5063;50.878;4.742;2024-02-26T08:12:06;6.20;99.90
10046;DHT22;5063;50.878;4.742;2024-02-26T08:14:32;6.30;99.90
10046;DHT22;5063;50.878;4.742;2024-02-26T08:16:58;6.20;99.90
10046;DHT22;5063;50.878;4.742;2024-02-26T08:19:24;6.30;99.90
10046;DHT22;5063;50.878;4.742;2024-02-26T08:21:50;6.30;99.90
10046;DHT22;5063;50.878;4.742;2024-02-26T08:24:16;6.30;99.90
10046;DHT22;5063;50.878;4.742;2024-02-26T08:26:42;6.30;99.90
10046;DHT22;5063;50.878;4.742;2024-02-26T08:29:08;6.30;99.90
10046;DHT22;5063;50.878;4.742;2024-02-26T08:31:34;6.30;99.90
10046;DHT22;5063;50.878;4.742;2024-02-26T08:34:03;6.30;99.90
10046;DHT22;5063;50.878;4.742;2024-02-26T08:36:30;6.20;99.90
10046;DHT22;5063;50.878;4.742;2024-02-26T08:38:57;6.30;99.90
10046;DHT22;5063;50.878;4.742;2024-02-26T08:41:22;6.20;99.90
10046;DHT22;5063;50.878;4.742;2024-02-26T08:43:48;6.50;99.90
10046;DHT22;5063;50.878;4.742;2024-02-26T08:46:14;6.20;99.90
10046;DHT22;5063;50.878;4.742;2024-02-26T08:48:40;6.30;99.90
10046;DHT22;5063;50.878;4.742;2024-02-26T08:51:07;6.20;99.90
10046;DHT22;5063;50.878;4.742;2024-02-26T08:53:33;6.20;99.90
10046;DHT22;5063;50.878;4.742;2024-02-26T08:55:59;6.30;99.90
10046;DHT22;5063;50.878;4.742;2024-02-26T08:58:24;6.30;99.90
10046;DHT22;5063;50.878;4.742;2024-02-26T09:00:50;6.20;99.90
10046;DHT22;5063;50.878;4.742;2024-02-26T09:03:16;6.20;99.90
10046;DHT22;5063;50.878;4.742;2024-02-26T09:05:42;6.20;99.90
10046;DHT22;5063;50.878;4.742;2024-02-26T09:08:08;6.50;99.90
10046;DHT22;5063;50.878;4.742;2024-02-26T09:10:34;6.30;99.90
10046;DHT22;5063;50.878;4.742;2024-02-26T09:13:00;6.40;99.90
10046;DHT22;5063;50.878;4.742;2024-02-26T09:15:25;6.30;99.90
10046;DHT22;5063;50.878;4.742;2024-02-26T09:17:51;6.30;99.90
10046;DHT22;5063;50.878;4.742;2024-02-26T09:20:17;6.30;99.90
10046;DHT22;5063;50.878;4.742;2024-02-26T09:22:47;6.40;99.90
10046;DHT22;5063;50.878;4.742;2024-02-26T09:25:14;6.30;99.90
10046;DHT22;5063;50.878;4.742;2024-02-26T09:27:42;6.30;99.90
10046;DHT22;5063;50.878;4.742;2024-02-26T09:30:10;6.30;99.90
10046;DHT22;5063;50.878;4.742;2024-02-26T09:32:37;6.20;99.90
10046;DHT22;5063;50.878;4.742;2024-02-26T09:35:03;6.20;99.90
10046;DHT22;5063;50.878;4.742;2024-02-26T09:37:28;6.20;99.90
10046;DHT22;5063;50.878;4.742;2024-02-26T09:39:54;6.30;99.90
10046;DHT22;5063;50.878;4.742;2024-02-26T09:42:20;6.20;99.90
10046;DHT22;5063;50.878;4.742;2024-02-26T09:44:51;6.20;99.90
10046;DHT22;5063;50.878;4.742;2024-02-26T09:47:17;6.20;99.90
10046;DHT22;5063;50.878;4.742;2024-02-26T09:49:43;6.20;99.90
10046;DHT22;5063;50.878;4.742;2024-02-26T09:52:09;6.20;99.90
10046;DHT22;5063;50.878;4.742;2024-02-26T09:54:35;6.30;99.90
10046;DHT22;5063;50.878;4.742;2024-02-26T09:57:03;6.20;99.90
10046;DHT22;5063;50.878;4.742;2024-02-26T09:59:41;6.20;99.90
10046;DHT22;5063;50.878;4.742;2024-02-26T10:02:12;6.20;99.90
10046;DHT22;5063;50.878;4.742;2024-02-26T10:04:42;6.30;99.90
10046;DHT22;5063;50.878;4.742;2024-02-26T10:07:13;6.20;99.90
10046;DHT22;5063;50.878;4.742;2024-02-26T10:09:40;6.40;99.90
10046;DHT22;5063;50.878;4.742;2024-02-26T10:12:10;6.70;99.90
10046;DHT22;5063;50.878;4.742;2024-02-26T10:14:36;6.50;99.90
10046;DHT22;5063;50.878;4.742;2024-02-26T10:17:02;6.50;99.90
10046;DHT22;5063;50.878;4.742;2024-02-26T10:19:29;6.40;99.90
10046;DHT22;5063;50.878;4.742;2024-02-26T10:22:00;6.40;99.90
10046;DHT22;5063;50.878;4.742;2024-02-26T10:24:28;6.50;99.90
10046;DHT22;5063;50.878;4.742;2024-02-26T10:26:55;6.20;99.90
10046;DHT22;5063;50.878;4.742;2024-02-26T10:29:22;6.40;99.90
10046;DHT22;5063;50.878;4.742;2024-02-26T10:31:50;6.40;99.90
10046;DHT22;5063;50.878;4.742;2024-02-26T10:34:16;6.40;99.90
10046;DHT22;5063;50.878;4.742;2024-02-26T10:36:42;6.40;99.90
10046;DHT22;5063;50.878;4.742;2024-02-26T10:39:09;6.40;99.90
10046;DHT22;5063;50.878;4.742;2024-02-26T10:41:37;6.40;99.90
10046;DHT22;5063;50.878;4.742;2024-02-26T10:44:03;6.40;99.90
10046;DHT22;5063;50.878;4.742;2024-02-26T10:46:28;6.50;99.90
10046;DHT22;5063;50.878;4.742;2024-02-26T10:48:55;6.40;99.90
10046;DHT22;5063;50.878;4.742;2024-02-26T10:51:26;6.20;99.90
10046;DHT22;5063;50.878;4.742;2024-02-26T10:53:55;6.30;99.90
10046;DHT22;5063;50.878;4.742;2024-02-26T10:56:27;6.30;99.90
10046;DHT22;5063;50.878;4.742;2024-02-26T10:58:54;6.20;99.90
10046;DHT22;5063;50.878;4.742;2024-02-26T11:01:21;6.30;99.90
10046;DHT22;5063;50.878;4.742;2024-02-26T11:03:50;6.20;99.90
10046;DHT22;5063;50.878;4.742;2024-02-26T11:06:16;6.20;99.90
10046;DHT22;5063;50.878;4.742;2024-02-26T11:08:43;5.90;99.90
10046;DHT22;5063;50.878;4.742;2024-02-26T11:11:09;6.10;99.90
10046;DHT22;5063;50.878;4.742;2024-02-26T11:13:39;6.40;99.90
10046;DHT22;5063;50.878;4.742;2024-02-26T11:16:06;6.10;99.90
10046;DHT22;5063;50.878;4.742;2024-02-26T11:18:34;6.20;99.90
10046;DHT22;5063;50.878;4.742;2024-02-26T11:21:01;6.10;99.90
10046;DHT22;5063;50.878;4.742;2024-02-26T11:23:28;6.10;99.90
10046;DHT22;5063;50.878;4.742;2024-02-26T11:25:57;6.30;99.90
10046;DHT22;5063;50.878;4.742;2024-02-26T11:28:27;6.10;99.90
10046;DHT22;5063;50.878;4.742;2024-02-26T11:30:54;6.00;99.90
10046;DHT22;5063;50.878;4.742;2024-02-26T11:33:20;6.10;99.90
10046;DHT22;5063;50.878;4.742;2024-02-26T11:35:46;6.10;99.90
10046;DHT22;5063;50.878;4.742;2024-02-26T11:38:24;6.40;99.90
10046;DHT22;5063;50.878;4.742;2024-02-26T11:40:53;6.20;99.90
10046;DHT22;5063;50.878;4.742;2024-02-26T11:43:23;6.00;99.90
10046;DHT22;5063;50.878;4.742;2024-02-26T11:45:50;6.20;99.90
10046;DHT22;5063;50.878;4.742;2024-02-26T11:48:24;6.10;99.90
10046;DHT22;5063;50.878;4.742;2024-02-26T11:50:53;6.10;99.90
10046;DHT22;5063;50.878;4.742;2024-02-26T11:53:20;6.00;99.90
10046;DHT22;5063;50.878;4.742;2024-02-26T11:55:46;6.20;99.90
10046;DHT22;5063;50.878;4.742;2024-02-26T11:58:11;5.90;99.90
10046;DHT22;5063;50.878;4.742;2024-02-26T12:00:40;6.00;99.90
10046;DHT22;5063;50.878;4.742;2024-02-26T12:03:06;6.30;99.90
10046;DHT22;5063;50.878;4.742;2024-02-26T12:05:34;6.10;99.90
10046;DHT22;5063;50.878;4.742;2024-02-26T12:08:07;6.10;99.90
10046;DHT22;5063;50.878;4.742;2024-02-26T12:10:34;6.20;99.90
10046;DHT22;5063;50.878;4.742;2024-02-26T12:15:37;6.20;99.90
10046;DHT22;5063;50.878;4.742;2024-02-26T12:18:04;6.20;99.90
10046;DHT22;5063;50.878;4.742;2024-02-26T12:20:31;6.50;99.90
10046;DHT22;5063;50.878;4.742;2024-02-26T12:22:57;6.20;99.90
10046;DHT22;5063;50.878;4.742;2024-02-26T12:25:25;6.10;99.90
10046;DHT22;5063;50.878;4.742;2024-02-26T12:27:52;6.30;99.90
10046;DHT22;5063;50.878;4.742;2024-02-26T12:30:18;6.30;99.90
10046;DHT22;5063;50.878;4.742;2024-02-26T12:32:46;5.90;99.90
10046;DHT22;5063;50.878;4.742;2024-02-26T12:35:12;6.30;99.90
10046;DHT22;5063;50.878;4.742;2024-02-26T12:37:38;6.40;99.90
10046;DHT22;5063;50.878;4.742;2024-02-26T12:40:06;6.20;99.90
10046;DHT22;5063;50.878;4.742;2024-02-26T12:42:37;6.20;99.90
10046;DHT22;5063;50.878;4.742;2024-02-26T12:45:08;6.20;99.90
10046;DHT22;5063;50.878;4.742;2024-02-26T12:47:38;6.30;99.90
10046;DHT22;5063;50.878;4.742;2024-02-26T12:50:05;6.20;99.90
10046;DHT22;5063;50.878;4.742;2024-02-26T12:52:37;6.20;99.90
10046;DHT22;5063;50.878;4.742;2024-02-26T12:55:05;6.40;99.90
10046;DHT22;5063;50.878;4.742;2024-02-26T12:57:35;6.20;99.90
10046;DHT22;5063;50.878;4.742;2024-02-26T13:00:01;6.10;99.90
10046;DHT22;5063;50.878;4.742;2024-02-26T13:02:27;6.30;99.90
10046;DHT22;5063;50.878;4.742;2024-02-26T13:04:54;6.30;99.90
10046;DHT22;5063;50.878;4.742;2024-02-26T13:07:21;6.30;99.90
10046;DHT22;5063;50.878;4.742;2024-02-26T13:09:46;6.40;99.90
10046;DHT22;5063;50.878;4.742;2024-02-26T13:12:12;6.40;99.90
10046;DHT22;5063;50.878;4.742;2024-02-26T13:14:39;6.40;99.90
10046;DHT22;5063;50.878;4.742;2024-02-26T13:17:05;6.40;99.90
10046;DHT22;5063;50.878;4.742;2024-02-26T13:19:31;6.40;99.90
10046;DHT22;5063;50.878;4.742;2024-02-26T13:22:03;6.40;99.90
10046;DHT22;5063;50.878;4.742;2024-02-26T13:24:29;6.40;99.90
10046;DHT22;5063;50.878;4.742;2024-02-26T13:26:56;6.40;99.90
10046;DHT22;5063;50.878;4.742;2024-02-26T13:29:22;6.30;99.90
10046;DHT22;5063;50.878;4.742;2024-02-26T13:31:54;6.30;99.90
10046;DHT22;5063;50.878;4.742;2024-02-26T13:34:25;6.20;99.90
10046;DHT22;5063;50.878;4.742;2024-02-26T13:36:52;6.20;99.90
10046;DHT22;5063;50.878;4.742;2024-02-26T13:39:26;6.30;99.90
10046;DHT22;5063;50.878;4.742;2024-02-26T13:41:52;6.10;99.90
10046;DHT22;5063;50.878;4.742;2024-02-26T13:44:19;6.30;99.90
10046;DHT22;5063;50.878;4.742;2024-02-26T13:46:46;6.30;99.90
10046;DHT22;5063;50.878;4.742;2024-02-26T13:49:12;6.30;99.90
10046;DHT22;5063;50.878;4.742;2024-02-26T13:51:39;6.30;99.90
10046;DHT22;5063;50.878;4.742;2024-02-26T13:54:05;6.50;99.90
10046;DHT22;5063;50.878;4.742;2024-02-26T13:56:31;6.30;99.90
10046;DHT22;5063;50.878;4.742;2024-02-26T13:58:57;6.50;99.90
10046;DHT22;5063;50.878;4.742;2024-02-26T14:01:24;6.40;99.90
10046;DHT22;5063;50.878;4.742;2024-02-26T14:03:49;6.40;99.90
10046;DHT22;5063;50.878;4.742;2024-02-26T14:06:15;6.30;99.90
10046;DHT22;5063;50.878;4.742;2024-02-26T14:08:41;6.50;99.90
10046;DHT22;5063;50.878;4.742;2024-02-26T14:11:07;6.30;99.90
10046;DHT22;5063;50.878;4.742;2024-02-26T14:13:33;6.30;99.90
10046;DHT22;5063;50.878;4.742;2024-02-26T14:15:58;6.30;99.90
10046;DHT22;5063;50.878;4.742;2024-02-26T14:18:24;6.20;99.90
10046;DHT22;5063;50.878;4.742;2024-02-26T14:20:50;6.20;99.90
10046;DHT22;5063;50.878;4.742;2024-02-26T14:23:16;6.20;99.90
10046;DHT22;5063;50.878;4.742;2024-02-26T14:25:42;6.10;99.90
10046;DHT22;5063;50.878;4.742;2024-02-26T14:28:08;6.30;99.90
10046;DHT22;5063;50.878;4.742;2024-02-26T14:30:34;6.30;99.90
10046;DHT22;5063;50.878;4.742;2024-02-26T14:33:00;6.30;99.90
10046;DHT22;5063;50.878;4.742;2024-02-26T14:35:26;6.30;99.90
10046;DHT22;5063;50.878;4.742;2024-02-26T14:37:52;6.40;99.90
10046;DHT22;5063;50.878;4.742;2024-02-26T14:40:17;6.40;99.90
10046;DHT22;5063;50.878;4.742;2024-02-26T14:42:44;6.40;99.90
10046;DHT22;5063;50.878;4.742;2024-02-26T14:45:11;6.20;99.90
10046;DHT22;5063;50.878;4.742;2024-02-26T14:47:37;6.20;99.90
10046;DHT22;5063;50.878;4.742;2024-02-26T14:50:03;6.30;99.90
10046;DHT22;5063;50.878;4.742;2024-02-26T14:52:29;6.30;99.90
10046;DHT22;5063;50.878;4.742;2024-02-26T14:54:55;6.30;99.90
10046;DHT22;5063;50.878;4.742;2024-02-26T14:57:21;6.20;99.90
10046;DHT22;5063;50.878;4.742;2024-02-26T14:59:46;6.30;99.90
10046;DHT22;5063;50.878;4.742;2024-02-26T15:02:13;6.40;99.90
10046;DHT22;5063;50.878;4.742;2024-02-26T15:04:39;6.60;99.90
10046;DHT22;5063;50.878;4.742;2024-02-26T15:07:05;6.30;99.90
10046;DHT22;5063;50.878;4.742;2024-02-26T15:09:31;6.40;99.90
10046;DHT22;5063;50.878;4.742;2024-02-26T15:11:56;6.30;99.90
10046;DHT22;5063;50.878;4.742;2024-02-26T15:14:23;6.30;99.90
10046;DHT22;5063;50.878;4.742;2024-02-26T15:16:50;6.30;99.90
10046;DHT22;5063;50.878;4.742;2024-02-26T15:19:16;6.50;99.90
10046;DHT22;5063;50.878;4.742;2024-02-26T15:21:44;6.40;99.90
10046;DHT22;5063;50.878;4.742;2024-02-26T15:24:10;6.30;99.90
10046;DHT22;5063;50.878;4.742;2024-02-26T15:26:37;6.30;99.90
10046;DHT22;5063;50.878;4.742;2024-02-26T15:29:03;6.30;99.90
10046;DHT22;5063;50.878;4.742;2024-02-26T15:31:29;6.20;99.90
10046;DHT22;5063;50.878;4.742;2024-02-26T15:33:56;6.30;99.90
10046;DHT22;5063;50.878;4.742;2024-02-26T15:36:22;6.30;99.90
10046;DHT22;5063;50.878;4.742;2024-02-26T15:38:47;6.30;99.90
10046;DHT22;5063;50.878;4.742;2024-02-26T15:41:14;6.30;99.90
10046;DHT22;5063;50.878;4.742;2024-02-26T15:43:40;6.40;99.90
10046;DHT22;5063;50.878;4.742;2024-02-26T15:46:06;6.30;99.90
10046;DHT22;5063;50.878;4.742;2024-02-26T15:48:32;6.30;99.90
10046;DHT22;5063;50.878;4.742;2024-02-26T15:50:58;6.30;99.90
10046;DHT22;5063;50.878;4.742;2024-02-26T15:53:24;6.30;99.90
10046;DHT22;5063;50.878;4.742;2024-02-26T15:55:50;6.20;99.90
10046;DHT22;5063;50.878;4.742;2024-02-26T15:58:16;6.30;99.90
10046;DHT22;5063;50.878;4.742;2024-02-26T16:00:42;6.30;99.90